sensor_id;sensor_type;location;lat;lon;timestamp;P1;durP1;ratioP1;P2;durP2;ratioP2
33495;SDS011;19836;55.812;37.560;2022-08-18T00:00:30;9.38;;;5.00;;
33495;SDS011;19836;55.812;37.560;2022-08-18T00:02:58;7.32;;;5.20;;
33495;SDS011;19836;55.812;37.560;2022-08-18T00:05:29;9.25;;;5.50;;
33495;SDS011;19836;55.812;37.560;2022-08-18T00:07:56;8.40;;;5.30;;
33495;SDS011;19836;55.812;37.560;2022-08-18T00:10:22;8.13;;;4.88;;
33495;SDS011;19836;55.812;37.560;2022-08-18T00:12:48;7.82;;;4.93;;
33495;SDS011;19836;55.812;37.560;2022-08-18T00:15:15;7.25;;;5.38;;
33495;SDS011;19836;55.812;37.560;2022-08-18T00:17:42;7.57;;;5.10;;
33495;SDS011;19836;55.812;37.560;2022-08-18T00:20:10;10.25;;;5.05;;
33495;SDS011;19836;55.812;37.560;2022-08-18T00:22:39;7.15;;;5.00;;
33495;SDS011;19836;55.812;37.560;2022-08-18T00:25:06;12.45;;;5.40;;
33495;SDS011;19836;55.812;37.560;2022-08-18T00:27:34;9.88;;;4.88;;
33495;SDS011;19836;55.812;37.560;2022-08-18T00:30:03;9.13;;;5.18;;
33495;SDS011;19836;55.812;37.560;2022-08-18T00:32:33;10.27;;;5.38;;
33495;SDS011;19836;55.812;37.560;2022-08-18T00:35:48;11.25;;;5.25;;
33495;SDS011;19836;55.812;37.560;2022-08-18T00:40:28;8.80;;;4.78;;
33495;SDS011;19836;55.812;37.560;2022-08-18T00:43:00;7.60;;;5.18;;
33495;SDS011;19836;55.812;37.560;2022-08-18T00:45:30;8.93;;;5.60;;
33495;SDS011;19836;55.812;37.560;2022-08-18T00:48:00;10.95;;;5.90;;
33495;SDS011;19836;55.812;37.560;2022-08-18T00:50:32;16.65;;;7.60;;
33495;SDS011;19836;55.812;37.560;2022-08-18T00:53:08;17.48;;;7.85;;
33495;SDS011;19836;55.812;37.560;2022-08-18T00:55:35;17.45;;;8.27;;
33495;SDS011;19836;55.812;37.560;2022-08-18T00:58:06;17.38;;;8.18;;
33495;SDS011;19836;55.812;37.560;2022-08-18T01:00:36;17.00;;;8.15;;
33495;SDS011;19836;55.812;37.560;2022-08-18T01:03:06;15.63;;;8.13;;
33495;SDS011;19836;55.812;37.560;2022-08-18T01:05:39;15.75;;;7.20;;
33495;SDS011;19836;55.812;37.560;2022-08-18T01:08:13;10.52;;;6.45;;
33495;SDS011;19836;55.812;37.560;2022-08-18T01:10:41;13.90;;;6.40;;
33495;SDS011;19836;55.812;37.560;2022-08-18T01:13:08;9.38;;;5.68;;
33495;SDS011;19836;55.812;37.560;2022-08-18T01:15:34;11.35;;;5.38;;
33495;SDS011;19836;55.812;37.560;2022-08-18T01:18:06;7.38;;;5.18;;
33495;SDS011;19836;55.812;37.560;2022-08-18T01:20:59;8.38;;;5.55;;
33495;SDS011;19836;55.812;37.560;2022-08-18T01:23:51;9.25;;;5.60;;
33495;SDS011;19836;55.812;37.560;2022-08-18T01:26:19;7.88;;;5.07;;
33495;SDS011;19836;55.812;37.560;2022-08-18T01:28:47;8.23;;;5.68;;
33495;SDS011;19836;55.812;37.560;2022-08-18T01:31:33;9.27;;;5.53;;
33495;SDS011;19836;55.812;37.560;2022-08-18T01:34:07;8.10;;;5.25;;
33495;SDS011;19836;55.812;37.560;2022-08-18T01:36:35;6.50;;;5.10;;
33495;SDS011;19836;55.812;37.560;2022-08-18T01:39:10;8.80;;;5.63;;
33495;SDS011;19836;55.812;37.560;2022-08-18T01:41:37;9.48;;;5.20;;
33495;SDS011;19836;55.812;37.560;2022-08-18T01:44:04;7.75;;;5.40;;
33495;SDS011;19836;55.812;37.560;2022-08-18T01:46:36;7.07;;;5.07;;
33495;SDS011;19836;55.812;37.560;2022-08-18T01:49:06;7.82;;;5.00;;
33495;SDS011;19836;55.812;37.560;2022-08-18T01:51:32;7.82;;;5.30;;
33495;SDS011;19836;55.812;37.560;2022-08-18T01:54:00;6.45;;;5.20;;
33495;SDS011;19836;55.812;37.560;2022-08-18T01:56:27;8.30;;;4.95;;
33495;SDS011;19836;55.812;37.560;2022-08-18T01:58:54;7.63;;;5.32;;
33495;SDS011;19836;55.812;37.560;2022-08-18T02:01:21;6.47;;;4.93;;
33495;SDS011;19836;55.812;37.560;2022-08-18T02:03:51;8.95;;;5.53;;
33495;SDS011;19836;55.812;37.560;2022-08-18T02:06:20;7.10;;;5.13;;
33495;SDS011;19836;55.812;37.560;2022-08-18T02:08:46;7.32;;;5.10;;
33495;SDS011;19836;55.812;37.560;2022-08-18T02:11:13;8.70;;;5.32;;
33495;SDS011;19836;55.812;37.560;2022-08-18T02:13:39;8.18;;;5.32;;
33495;SDS011;19836;55.812;37.560;2022-08-18T02:16:06;7.18;;;5.20;;
33495;SDS011;19836;55.812;37.560;2022-08-18T02:18:33;5.88;;;4.85;;
33495;SDS011;19836;55.812;37.560;2022-08-18T02:21:05;11.73;;;5.47;;
33495;SDS011;19836;55.812;37.560;2022-08-18T02:23:36;6.65;;;5.00;;
33495;SDS011;19836;55.812;37.560;2022-08-18T02:26:06;8.60;;;5.38;;
33495;SDS011;19836;55.812;37.560;2022-08-18T02:28:34;8.10;;;5.65;;
33495;SDS011;19836;55.812;37.560;2022-08-18T02:31:07;7.50;;;5.18;;
33495;SDS011;19836;55.812;37.560;2022-08-18T02:33:35;7.88;;;5.20;;
33495;SDS011;19836;55.812;37.560;2022-08-18T02:36:02;7.95;;;5.35;;
33495;SDS011;19836;55.812;37.560;2022-08-18T02:38:28;9.27;;;5.60;;
33495;SDS011;19836;55.812;37.560;2022-08-18T02:40:58;7.50;;;5.20;;
33495;SDS011;19836;55.812;37.560;2022-08-18T02:43:26;7.78;;;5.45;;
33495;SDS011;19836;55.812;37.560;2022-08-18T02:45:53;8.82;;;6.28;;
33495;SDS011;19836;55.812;37.560;2022-08-18T02:48:19;6.95;;;6.22;;
33495;SDS011;19836;55.812;37.560;2022-08-18T02:51:03;8.10;;;5.63;;
33495;SDS011;19836;55.812;37.560;2022-08-18T02:53:35;9.70;;;6.25;;
33495;SDS011;19836;55.812;37.560;2022-08-18T02:56:07;8.10;;;5.85;;
33495;SDS011;19836;55.812;37.560;2022-08-18T02:58:58;7.15;;;5.75;;
33495;SDS011;19836;55.812;37.560;2022-08-18T03:01:27;7.43;;;6.07;;
33495;SDS011;19836;55.812;37.560;2022-08-18T03:03:56;9.40;;;6.60;;
33495;SDS011;19836;55.812;37.560;2022-08-18T03:06:23;10.55;;;6.40;;
33495;SDS011;19836;55.812;37.560;2022-08-18T03:08:50;10.55;;;6.70;;
33495;SDS011;19836;55.812;37.560;2022-08-18T03:11:17;10.60;;;6.95;;
33495;SDS011;19836;55.812;37.560;2022-08-18T03:13:46;9.23;;;7.30;;
33495;SDS011;19836;55.812;37.560;2022-08-18T03:16:12;10.93;;;7.65;;
33495;SDS011;19836;55.812;37.560;2022-08-18T03:18:40;11.52;;;7.20;;
33495;SDS011;19836;55.812;37.560;2022-08-18T03:21:10;9.48;;;7.22;;
33495;SDS011;19836;55.812;37.560;2022-08-18T03:23:38;8.85;;;7.65;;
33495;SDS011;19836;55.812;37.560;2022-08-18T03:26:06;10.15;;;7.63;;
33495;SDS011;19836;55.812;37.560;2022-08-18T03:28:36;11.15;;;7.57;;
33495;SDS011;19836;55.812;37.560;2022-08-18T03:31:03;9.70;;;7.93;;
33495;SDS011;19836;55.812;37.560;2022-08-18T03:33:29;10.80;;;7.97;;
33495;SDS011;19836;55.812;37.560;2022-08-18T03:35:55;13.27;;;8.98;;
33495;SDS011;19836;55.812;37.560;2022-08-18T03:38:21;13.20;;;9.13;;
33495;SDS011;19836;55.812;37.560;2022-08-18T03:40:50;14.70;;;9.40;;
33495;SDS011;19836;55.812;37.560;2022-08-18T03:43:16;12.43;;;9.20;;
33495;SDS011;19836;55.812;37.560;2022-08-18T03:45:42;13.57;;;9.50;;
33495;SDS011;19836;55.812;37.560;2022-08-18T03:48:08;14.90;;;9.95;;
33495;SDS011;19836;55.812;37.560;2022-08-18T03:50:35;13.35;;;9.85;;
33495;SDS011;19836;55.812;37.560;2022-08-18T03:53:02;11.52;;;9.30;;
33495;SDS011;19836;55.812;37.560;2022-08-18T03:55:30;11.32;;;9.32;;
33495;SDS011;19836;55.812;37.560;2022-08-18T03:57:58;12.52;;;9.57;;
33495;SDS011;19836;55.812;37.560;2022-08-18T04:00:30;12.98;;;9.68;;
33495;SDS011;19836;55.812;37.560;2022-08-18T04:03:00;12.10;;;9.65;;
33495;SDS011;19836;55.812;37.560;2022-08-18T04:05:27;12.55;;;9.57;;
33495;SDS011;19836;55.812;37.560;2022-08-18T04:07:53;13.02;;;10.00;;
33495;SDS011;19836;55.812;37.560;2022-08-18T04:10:23;11.95;;;9.93;;
33495;SDS011;19836;55.812;37.560;2022-08-18T04:12:49;12.93;;;9.48;;
33495;SDS011;19836;55.812;37.560;2022-08-18T04:15:16;13.43;;;10.05;;
33495;SDS011;19836;55.812;37.560;2022-08-18T04:17:42;12.98;;;10.40;;
33495;SDS011;19836;55.812;37.560;2022-08-18T04:20:10;16.45;;;10.98;;
33495;SDS011;19836;55.812;37.560;2022-08-18T04:22:38;15.18;;;11.20;;
33495;SDS011;19836;55.812;37.560;2022-08-18T04:25:05;17.23;;;14.00;;
33495;SDS011;19836;55.812;37.560;2022-08-18T04:27:34;16.90;;;13.85;;
33495;SDS011;19836;55.812;37.560;2022-08-18T04:30:00;16.08;;;12.55;;
33495;SDS011;19836;55.812;37.560;2022-08-18T04:32:28;21.00;;;12.68;;
33495;SDS011;19836;55.812;37.560;2022-08-18T04:34:54;23.52;;;15.18;;
33495;SDS011;19836;55.812;37.560;2022-08-18T04:37:20;25.83;;;16.15;;
33495;SDS011;19836;55.812;37.560;2022-08-18T04:39:46;24.85;;;17.55;;
33495;SDS011;19836;55.812;37.560;2022-08-18T04:42:13;26.48;;;16.27;;
33495;SDS011;19836;55.812;37.560;2022-08-18T04:44:39;26.48;;;18.75;;
33495;SDS011;19836;55.812;37.560;2022-08-18T04:47:08;25.38;;;20.00;;
33495;SDS011;19836;55.812;37.560;2022-08-18T04:49:34;26.83;;;21.70;;
33495;SDS011;19836;55.812;37.560;2022-08-18T04:52:01;25.90;;;22.25;;
33495;SDS011;19836;55.812;37.560;2022-08-18T04:54:48;35.13;;;27.65;;
33495;SDS011;19836;55.812;37.560;2022-08-18T04:57:18;34.22;;;27.70;;
33495;SDS011;19836;55.812;37.560;2022-08-18T04:59:46;38.15;;;34.00;;
33495;SDS011;19836;55.812;37.560;2022-08-18T05:02:13;35.90;;;31.67;;
33495;SDS011;19836;55.812;37.560;2022-08-18T05:04:41;43.92;;;39.22;;
33495;SDS011;19836;55.812;37.560;2022-08-18T05:07:12;40.67;;;33.95;;
33495;SDS011;19836;55.812;37.560;2022-08-18T05:09:39;54.28;;;41.47;;
33495;SDS011;19836;55.812;37.560;2022-08-18T05:12:06;52.67;;;42.40;;
33495;SDS011;19836;55.812;37.560;2022-08-18T05:14:34;52.60;;;44.90;;
33495;SDS011;19836;55.812;37.560;2022-08-18T05:17:00;59.85;;;49.88;;
33495;SDS011;19836;55.812;37.560;2022-08-18T05:19:28;66.15;;;54.00;;
33495;SDS011;19836;55.812;37.560;2022-08-18T05:21:55;67.28;;;58.00;;
33495;SDS011;19836;55.812;37.560;2022-08-18T05:24:23;100.47;;;57.35;;
33495;SDS011;19836;55.812;37.560;2022-08-18T05:26:51;103.03;;;61.50;;
33495;SDS011;19836;55.812;37.560;2022-08-18T05:29:20;70.20;;;58.88;;
33495;SDS011;19836;55.812;37.560;2022-08-18T05:31:47;72.25;;;64.68;;
33495;SDS011;19836;55.812;37.560;2022-08-18T05:34:15;71.03;;;63.63;;
33495;SDS011;19836;55.812;37.560;2022-08-18T05:36:48;71.25;;;63.58;;
33495;SDS011;19836;55.812;37.560;2022-08-18T05:39:27;78.50;;;70.03;;
33495;SDS011;19836;55.812;37.560;2022-08-18T05:42:05;79.22;;;70.70;;
33495;SDS011;19836;55.812;37.560;2022-08-18T05:44:38;78.32;;;70.00;;
33495;SDS011;19836;55.812;37.560;2022-08-18T05:47:25;79.78;;;70.57;;
33495;SDS011;19836;55.812;37.560;2022-08-18T05:49:54;78.43;;;69.90;;
33495;SDS011;19836;55.812;37.560;2022-08-18T05:55:13;94.40;;;75.53;;
33495;SDS011;19836;55.812;37.560;2022-08-18T05:58:02;86.57;;;77.10;;
33495;SDS011;19836;55.812;37.560;2022-08-18T06:00:35;84.43;;;75.25;;
33495;SDS011;19836;55.812;37.560;2022-08-18T06:03:05;85.15;;;75.95;;
33495;SDS011;19836;55.812;37.560;2022-08-18T06:05:37;88.18;;;78.60;;
33495;SDS011;19836;55.812;37.560;2022-08-18T06:08:19;90.10;;;80.25;;
33495;SDS011;19836;55.812;37.560;2022-08-18T06:10:52;90.55;;;80.25;;
33495;SDS011;19836;55.812;37.560;2022-08-18T06:13:19;89.55;;;78.05;;
33495;SDS011;19836;55.812;37.560;2022-08-18T06:15:53;81.47;;;72.60;;
33495;SDS011;19836;55.812;37.560;2022-08-18T06:21:56;79.10;;;67.80;;
33495;SDS011;19836;55.812;37.560;2022-08-18T06:24:50;76.63;;;66.28;;
33495;SDS011;19836;55.812;37.560;2022-08-18T06:30:20;64.73;;;57.80;;
33495;SDS011;19836;55.812;37.560;2022-08-18T06:33:04;65.75;;;58.22;;
33495;SDS011;19836;55.812;37.560;2022-08-18T06:35:43;65.10;;;57.78;;
33495;SDS011;19836;55.812;37.560;2022-08-18T06:43:57;58.22;;;51.78;;
33495;SDS011;19836;55.812;37.560;2022-08-18T06:46:31;58.58;;;51.92;;
33495;SDS011;19836;55.812;37.560;2022-08-18T06:49:11;57.20;;;50.90;;
33495;SDS011;19836;55.812;37.560;2022-08-18T06:51:48;59.03;;;51.20;;
33495;SDS011;19836;55.812;37.560;2022-08-18T06:56:51;56.60;;;50.30;;
33495;SDS011;19836;55.812;37.560;2022-08-18T06:59:23;60.65;;;49.40;;
33495;SDS011;19836;55.812;37.560;2022-08-18T07:01:52;53.67;;;47.85;;
33495;SDS011;19836;55.812;37.560;2022-08-18T07:04:36;50.47;;;44.97;;
33495;SDS011;19836;55.812;37.560;2022-08-18T07:07:11;54.17;;;44.17;;
33495;SDS011;19836;55.812;37.560;2022-08-18T07:09:38;43.50;;;38.30;;
33495;SDS011;19836;55.812;37.560;2022-08-18T07:12:05;40.60;;;34.58;;
33495;SDS011;19836;55.812;37.560;2022-08-18T07:14:44;37.95;;;32.70;;
33495;SDS011;19836;55.812;37.560;2022-08-18T07:17:13;37.88;;;30.83;;
33495;SDS011;19836;55.812;37.560;2022-08-18T07:20:21;31.60;;;27.13;;
33495;SDS011;19836;55.812;37.560;2022-08-18T07:25:29;26.10;;;22.05;;
33495;SDS011;19836;55.812;37.560;2022-08-18T07:27:58;21.38;;;18.45;;
33495;SDS011;19836;55.812;37.560;2022-08-18T07:30:31;24.75;;;18.67;;
33495;SDS011;19836;55.812;37.560;2022-08-18T07:33:17;25.15;;;17.23;;
33495;SDS011;19836;55.812;37.560;2022-08-18T07:38:23;15.18;;;11.93;;
33495;SDS011;19836;55.812;37.560;2022-08-18T07:40:56;12.73;;;9.50;;
33495;SDS011;19836;55.812;37.560;2022-08-18T07:43:31;11.88;;;9.73;;
33495;SDS011;19836;55.812;37.560;2022-08-18T07:46:09;12.50;;;9.13;;
33495;SDS011;19836;55.812;37.560;2022-08-18T07:49:02;14.20;;;9.32;;
33495;SDS011;19836;55.812;37.560;2022-08-18T07:51:43;16.05;;;9.20;;
33495;SDS011;19836;55.812;37.560;2022-08-18T07:54:21;11.48;;;7.13;;
33495;SDS011;19836;55.812;37.560;2022-08-18T07:59:33;11.85;;;6.93;;
33495;SDS011;19836;55.812;37.560;2022-08-18T08:02:06;10.32;;;6.07;;
33495;SDS011;19836;55.812;37.560;2022-08-18T08:05:16;11.88;;;6.00;;
33495;SDS011;19836;55.812;37.560;2022-08-18T08:19:19;10.27;;;5.38;;
33495;SDS011;19836;55.812;37.560;2022-08-18T08:22:07;9.57;;;5.47;;
33495;SDS011;19836;55.812;37.560;2022-08-18T08:24:44;10.52;;;4.30;;
33495;SDS011;19836;55.812;37.560;2022-08-18T08:27:33;7.07;;;5.28;;
33495;SDS011;19836;55.812;37.560;2022-08-18T08:30:06;8.23;;;4.78;;
33495;SDS011;19836;55.812;37.560;2022-08-18T08:35:07;6.85;;;5.80;;
33495;SDS011;19836;55.812;37.560;2022-08-18T08:40:28;6.47;;;3.65;;
33495;SDS011;19836;55.812;37.560;2022-08-18T08:43:13;9.23;;;4.30;;
33495;SDS011;19836;55.812;37.560;2022-08-18T08:45:46;9.38;;;4.35;;
33495;SDS011;19836;55.812;37.560;2022-08-18T08:48:28;8.98;;;4.90;;
33495;SDS011;19836;55.812;37.560;2022-08-18T08:51:19;4.50;;;2.70;;
33495;SDS011;19836;55.812;37.560;2022-08-18T08:53:56;4.82;;;2.92;;
33495;SDS011;19836;55.812;37.560;2022-08-18T08:56:30;3.97;;;2.63;;
33495;SDS011;19836;55.812;37.560;2022-08-18T08:59:04;4.88;;;2.90;;
33495;SDS011;19836;55.812;37.560;2022-08-18T09:09:46;3.40;;;2.40;;
33495;SDS011;19836;55.812;37.560;2022-08-18T09:12:41;5.63;;;2.30;;
33495;SDS011;19836;55.812;37.560;2022-08-18T09:21:18;4.93;;;2.28;;
33495;SDS011;19836;55.812;37.560;2022-08-18T09:23:34;6.93;;;2.50;;
33495;SDS011;19836;55.812;37.560;2022-08-18T09:26:24;5.80;;;2.47;;
33495;SDS011;19836;55.812;37.560;2022-08-18T09:28:57;5.43;;;2.65;;
33495;SDS011;19836;55.812;37.560;2022-08-18T09:31:26;4.25;;;2.30;;
33495;SDS011;19836;55.812;37.560;2022-08-18T09:42:37;4.60;;;2.42;;
33495;SDS011;19836;55.812;37.560;2022-08-18T09:47:59;6.28;;;2.42;;
33495;SDS011;19836;55.812;37.560;2022-08-18T09:53:15;5.57;;;2.70;;
33495;SDS011;19836;55.812;37.560;2022-08-18T09:55:57;7.43;;;2.38;;
33495;SDS011;19836;55.812;37.560;2022-08-18T10:06:41;8.15;;;2.75;;
33495;SDS011;19836;55.812;37.560;2022-08-18T10:09:26;3.35;;;2.42;;
33495;SDS011;19836;55.812;37.560;2022-08-18T10:12:05;3.65;;;2.00;;
33495;SDS011;19836;55.812;37.560;2022-08-18T10:17:51;6.72;;;2.45;;
33495;SDS011;19836;55.812;37.560;2022-08-18T10:20:29;6.95;;;2.20;;
33495;SDS011;19836;55.812;37.560;2022-08-18T10:23:03;7.30;;;2.13;;
33495;SDS011;19836;55.812;37.560;2022-08-18T10:25:39;4.65;;;2.03;;
33495;SDS011;19836;55.812;37.560;2022-08-18T10:28:08;4.80;;;2.25;;
33495;SDS011;19836;55.812;37.560;2022-08-18T10:33:03;5.57;;;2.00;;
33495;SDS011;19836;55.812;37.560;2022-08-18T10:40:40;4.55;;;2.20;;
33495;SDS011;19836;55.812;37.560;2022-08-18T10:43:09;9.52;;;2.40;;
33495;SDS011;19836;55.812;37.560;2022-08-18T10:45:43;5.63;;;2.35;;
33495;SDS011;19836;55.812;37.560;2022-08-18T10:48:17;7.17;;;2.57;;
33495;SDS011;19836;55.812;37.560;2022-08-18T10:50:51;5.18;;;2.50;;
33495;SDS011;19836;55.812;37.560;2022-08-18T10:56:02;2.63;;;1.90;;
33495;SDS011;19836;55.812;37.560;2022-08-18T11:01:20;4.47;;;2.30;;
33495;SDS011;19836;55.812;37.560;2022-08-18T11:04:08;6.13;;;1.83;;
33495;SDS011;19836;55.812;37.560;2022-08-18T11:06:58;2.72;;;1.80;;
33495;SDS011;19836;55.812;37.560;2022-08-18T11:09:30;3.08;;;2.17;;
33495;SDS011;19836;55.812;37.560;2022-08-18T11:11:58;4.70;;;2.05;;
33495;SDS011;19836;55.812;37.560;2022-08-18T11:20:29;2.40;;;1.50;;
33495;SDS011;19836;55.812;37.560;2022-08-18T11:22:57;3.40;;;1.52;;
33495;SDS011;19836;55.812;37.560;2022-08-18T11:25:30;4.75;;;1.80;;
33495;SDS011;19836;55.812;37.560;2022-08-18T11:27:59;4.72;;;2.15;;
33495;SDS011;19836;55.812;37.560;2022-08-18T11:30:33;1.92;;;1.50;;
33495;SDS011;19836;55.812;37.560;2022-08-18T11:33:02;3.72;;;1.90;;
33495;SDS011;19836;55.812;37.560;2022-08-18T11:35:32;5.25;;;2.08;;
33495;SDS011;19836;55.812;37.560;2022-08-18T11:38:12;5.22;;;3.97;;
33495;SDS011;19836;55.812;37.560;2022-08-18T11:41:12;3.25;;;2.03;;
33495;SDS011;19836;55.812;37.560;2022-08-18T11:43:43;5.32;;;1.70;;
33495;SDS011;19836;55.812;37.560;2022-08-18T11:51:10;2.97;;;1.40;;
33495;SDS011;19836;55.812;37.560;2022-08-18T11:58:43;5.07;;;1.52;;
33495;SDS011;19836;55.812;37.560;2022-08-18T12:01:26;1.90;;;1.33;;
33495;SDS011;19836;55.812;37.560;2022-08-18T12:06:56;5.53;;;1.70;;
33495;SDS011;19836;55.812;37.560;2022-08-18T12:12:23;3.10;;;1.52;;
33495;SDS011;19836;55.812;37.560;2022-08-18T12:17:17;5.20;;;1.30;;
33495;SDS011;19836;55.812;37.560;2022-08-18T12:19:43;2.47;;;1.25;;
33495;SDS011;19836;55.812;37.560;2022-08-18T12:22:20;6.90;;;3.13;;
33495;SDS011;19836;55.812;37.560;2022-08-18T12:24:48;4.78;;;1.40;;
33495;SDS011;19836;55.812;37.560;2022-08-18T12:27:16;3.20;;;1.77;;
33495;SDS011;19836;55.812;37.560;2022-08-18T12:29:43;4.35;;;1.70;;
33495;SDS011;19836;55.812;37.560;2022-08-18T12:32:09;2.50;;;1.30;;
33495;SDS011;19836;55.812;37.560;2022-08-18T12:34:35;4.72;;;1.80;;
33495;SDS011;19836;55.812;37.560;2022-08-18T12:37:01;2.72;;;1.50;;
33495;SDS011;19836;55.812;37.560;2022-08-18T12:39:28;6.88;;;1.70;;
33495;SDS011;19836;55.812;37.560;2022-08-18T12:41:55;6.55;;;1.55;;
33495;SDS011;19836;55.812;37.560;2022-08-18T12:44:21;6.53;;;1.48;;
33495;SDS011;19836;55.812;37.560;2022-08-18T12:46:48;3.47;;;1.50;;
33495;SDS011;19836;55.812;37.560;2022-08-18T12:49:15;2.58;;;1.23;;
33495;SDS011;19836;55.812;37.560;2022-08-18T12:51:43;2.43;;;1.47;;
33495;SDS011;19836;55.812;37.560;2022-08-18T12:54:09;5.18;;;1.30;;
33495;SDS011;19836;55.812;37.560;2022-08-18T12:56:36;4.80;;;1.73;;
33495;SDS011;19836;55.812;37.560;2022-08-18T12:59:03;10.55;;;1.63;;
33495;SDS011;19836;55.812;37.560;2022-08-18T13:01:31;4.47;;;1.20;;
33495;SDS011;19836;55.812;37.560;2022-08-18T13:04:03;1.90;;;0.98;;
33495;SDS011;19836;55.812;37.560;2022-08-18T13:06:31;1.45;;;1.08;;
33495;SDS011;19836;55.812;37.560;2022-08-18T13:08:59;2.97;;;1.20;;
33495;SDS011;19836;55.812;37.560;2022-08-18T13:11:25;1.85;;;1.23;;
33495;SDS011;19836;55.812;37.560;2022-08-18T13:13:51;3.10;;;1.48;;
33495;SDS011;19836;55.812;37.560;2022-08-18T13:16:18;2.85;;;1.30;;
33495;SDS011;19836;55.812;37.560;2022-08-18T13:18:44;2.17;;;1.40;;
33495;SDS011;19836;55.812;37.560;2022-08-18T13:21:12;3.22;;;1.60;;
33495;SDS011;19836;55.812;37.560;2022-08-18T13:23:39;2.05;;;1.25;;
33495;SDS011;19836;55.812;37.560;2022-08-18T13:26:07;2.22;;;1.10;;
33495;SDS011;19836;55.812;37.560;2022-08-18T13:28:37;5.15;;;1.55;;
33495;SDS011;19836;55.812;37.560;2022-08-18T13:31:04;6.78;;;1.38;;
33495;SDS011;19836;55.812;37.560;2022-08-18T13:33:31;2.10;;;1.65;;
33495;SDS011;19836;55.812;37.560;2022-08-18T13:35:57;2.60;;;1.20;;
33495;SDS011;19836;55.812;37.560;2022-08-18T13:38:23;3.30;;;1.20;;
33495;SDS011;19836;55.812;37.560;2022-08-18T13:40:50;2.67;;;1.20;;
33495;SDS011;19836;55.812;37.560;2022-08-18T13:43:17;2.22;;;1.20;;
33495;SDS011;19836;55.812;37.560;2022-08-18T13:45:46;3.10;;;1.40;;
33495;SDS011;19836;55.812;37.560;2022-08-18T13:48:15;16.67;;;1.95;;
33495;SDS011;19836;55.812;37.560;2022-08-18T13:50:42;3.30;;;1.45;;
33495;SDS011;19836;55.812;37.560;2022-08-18T13:53:11;3.70;;;1.40;;
33495;SDS011;19836;55.812;37.560;2022-08-18T13:55:40;2.22;;;1.40;;
33495;SDS011;19836;55.812;37.560;2022-08-18T13:58:06;2.10;;;1.42;;
33495;SDS011;19836;55.812;37.560;2022-08-18T14:00:32;6.07;;;1.40;;
33495;SDS011;19836;55.812;37.560;2022-08-18T14:02:59;6.38;;;2.00;;
33495;SDS011;19836;55.812;37.560;2022-08-18T14:05:25;5.00;;;1.85;;
33495;SDS011;19836;55.812;37.560;2022-08-18T14:07:52;4.53;;;2.10;;
33495;SDS011;19836;55.812;37.560;2022-08-18T14:10:19;6.93;;;1.70;;
33495;SDS011;19836;55.812;37.560;2022-08-18T14:12:45;4.47;;;1.60;;
33495;SDS011;19836;55.812;37.560;2022-08-18T14:15:12;6.88;;;2.00;;
33495;SDS011;19836;55.812;37.560;2022-08-18T14:17:39;5.32;;;2.33;;
33495;SDS011;19836;55.812;37.560;2022-08-18T14:20:06;7.53;;;1.70;;
33495;SDS011;19836;55.812;37.560;2022-08-18T14:22:52;2.15;;;1.40;;
33495;SDS011;19836;55.812;37.560;2022-08-18T14:25:39;3.83;;;1.60;;
33495;SDS011;19836;55.812;37.560;2022-08-18T14:28:24;3.85;;;1.60;;
33495;SDS011;19836;55.812;37.560;2022-08-18T14:30:51;4.38;;;2.00;;
33495;SDS011;19836;55.812;37.560;2022-08-18T14:33:19;2.95;;;1.98;;
33495;SDS011;19836;55.812;37.560;2022-08-18T14:35:46;4.22;;;1.70;;
33495;SDS011;19836;55.812;37.560;2022-08-18T14:38:13;2.55;;;1.83;;
33495;SDS011;19836;55.812;37.560;2022-08-18T14:40:42;7.75;;;4.72;;
33495;SDS011;19836;55.812;37.560;2022-08-18T14:43:11;19.33;;;3.30;;
33495;SDS011;19836;55.812;37.560;2022-08-18T14:45:38;4.25;;;2.10;;
33495;SDS011;19836;55.812;37.560;2022-08-18T14:48:05;2.40;;;1.65;;
33495;SDS011;19836;55.812;37.560;2022-08-18T14:50:31;3.10;;;1.80;;
33495;SDS011;19836;55.812;37.560;2022-08-18T14:52:57;4.05;;;2.08;;
33495;SDS011;19836;55.812;37.560;2022-08-18T14:55:23;3.90;;;2.03;;
33495;SDS011;19836;55.812;37.560;2022-08-18T14:57:49;3.67;;;2.00;;
33495;SDS011;19836;55.812;37.560;2022-08-18T15:00:17;2.42;;;1.88;;
33495;SDS011;19836;55.812;37.560;2022-08-18T15:02:44;5.13;;;2.92;;
33495;SDS011;19836;55.812;37.560;2022-08-18T15:05:13;5.13;;;2.80;;
33495;SDS011;19836;55.812;37.560;2022-08-18T15:07:40;6.47;;;2.55;;
33495;SDS011;19836;55.812;37.560;2022-08-18T15:10:07;4.18;;;1.85;;
33495;SDS011;19836;55.812;37.560;2022-08-18T15:12:35;5.50;;;2.30;;
33495;SDS011;19836;55.812;37.560;2022-08-18T15:15:03;5.47;;;2.33;;
33495;SDS011;19836;55.812;37.560;2022-08-18T15:17:31;6.25;;;2.40;;
33495;SDS011;19836;55.812;37.560;2022-08-18T15:19:58;7.85;;;2.75;;
33495;SDS011;19836;55.812;37.560;2022-08-18T15:22:24;6.05;;;2.38;;
33495;SDS011;19836;55.812;37.560;2022-08-18T15:25:08;4.28;;;2.80;;
33495;SDS011;19836;55.812;37.560;2022-08-18T15:27:52;5.80;;;2.50;;
33495;SDS011;19836;55.812;37.560;2022-08-18T15:30:19;5.38;;;2.83;;
33495;SDS011;19836;55.812;37.560;2022-08-18T15:32:46;5.20;;;2.72;;
33495;SDS011;19836;55.812;37.560;2022-08-18T15:35:13;7.03;;;3.00;;
33495;SDS011;19836;55.812;37.560;2022-08-18T15:37:43;5.20;;;3.55;;
33495;SDS011;19836;55.812;37.560;2022-08-18T15:40:12;8.32;;;3.42;;
33495;SDS011;19836;55.812;37.560;2022-08-18T15:42:48;4.20;;;3.25;;
33495;SDS011;19836;55.812;37.560;2022-08-18T15:45:20;5.53;;;3.22;;
33495;SDS011;19836;55.812;37.560;2022-08-18T15:47:52;5.93;;;3.47;;
33495;SDS011;19836;55.812;37.560;2022-08-18T15:50:19;5.25;;;2.72;;
33495;SDS011;19836;55.812;37.560;2022-08-18T15:52:51;9.75;;;4.05;;
33495;SDS011;19836;55.812;37.560;2022-08-18T15:55:22;6.80;;;4.00;;
33495;SDS011;19836;55.812;37.560;2022-08-18T15:57:50;6.28;;;3.17;;
33495;SDS011;19836;55.812;37.560;2022-08-18T16:00:18;7.53;;;3.53;;
33495;SDS011;19836;55.812;37.560;2022-08-18T16:02:48;4.38;;;3.10;;
33495;SDS011;19836;55.812;37.560;2022-08-18T16:05:18;7.65;;;3.58;;
33495;SDS011;19836;55.812;37.560;2022-08-18T16:07:46;6.35;;;3.30;;
33495;SDS011;19836;55.812;37.560;2022-08-18T16:10:14;6.97;;;3.40;;
33495;SDS011;19836;55.812;37.560;2022-08-18T16:12:41;6.60;;;3.75;;
33495;SDS011;19836;55.812;37.560;2022-08-18T16:15:08;8.30;;;3.47;;
33495;SDS011;19836;55.812;37.560;2022-08-18T16:17:34;7.25;;;3.58;;
33495;SDS011;19836;55.812;37.560;2022-08-18T16:20:00;6.65;;;3.50;;
33495;SDS011;19836;55.812;37.560;2022-08-18T16:22:26;7.47;;;3.90;;
33495;SDS011;19836;55.812;37.560;2022-08-18T16:24:53;10.32;;;3.58;;
33495;SDS011;19836;55.812;37.560;2022-08-18T16:27:19;7.20;;;3.40;;
33495;SDS011;19836;55.812;37.560;2022-08-18T16:29:45;10.13;;;3.45;;
33495;SDS011;19836;55.812;37.560;2022-08-18T16:32:12;6.28;;;3.55;;
33495;SDS011;19836;55.812;37.560;2022-08-18T16:34:38;67.40;;;60.75;;
33495;SDS011;19836;55.812;37.560;2022-08-18T16:37:05;9.18;;;6.60;;
33495;SDS011;19836;55.812;37.560;2022-08-18T16:39:35;6.70;;;3.63;;
33495;SDS011;19836;55.812;37.560;2022-08-18T16:42:01;7.75;;;2.83;;
33495;SDS011;19836;55.812;37.560;2022-08-18T16:44:28;5.72;;;3.22;;
33495;SDS011;19836;55.812;37.560;2022-08-18T16:46:58;9.18;;;3.15;;
33495;SDS011;19836;55.812;37.560;2022-08-18T16:49:27;4.63;;;2.80;;